Time;durP1;ratioP1;P1;durP2;ratioP2;P2;SDS_P1;SDS_P2;PMS_P1;PMS_P2;Temp;Humidity;BMP_temperature;BMP_pressure;BME280_temperature;BME280_humidity;BME280_pressure;Samples;Min_cycle;Max_cycle;Signal;HPM_P1;HPM_P2
2022/07/16 00:02:18;;;;;;;2.42;2.33;;;16.00;95.40;;;;;;6153356;23;20209;-75
2022/07/16 00:04:44;;;;;;;4.13;2.28;;;16.10;95.00;;;;;;6153843;23;20150;-75
2022/07/16 00:07:09;;;;;;;2.72;2.40;;;16.10;95.10;;;;;;6153861;23;20602;-74
2022/07/16 00:09:35;;;;;;;3.00;2.80;;;16.20;95.30;;;;;;6153251;23;20173;-74
2022/07/16 00:12:01;;;;;;;2.80;2.55;;;16.10;95.30;;;;;;6153206;23;20255;-75
2022/07/16 00:14:26;;;;;;;2.70;2.50;;;16.00;95.90;;;;;;6154257;23;20607;-76
2022/07/16 00:16:52;;;;;;;3.45;2.30;;;15.90;96.60;;;;;;6153949;23;20459;-75
2022/07/16 00:19:21;;;;;;;3.03;2.83;;;15.80;96.90;;;;;;6153473;23;20145;-75
2022/07/16 00:21:50;;;;;;;2.67;2.47;;;15.80;96.90;;;;;;6153964;23;20249;-75
2022/07/16 00:24:16;;;;;;;2.67;2.35;;;15.80;97.20;;;;;;6153962;23;20156;-75
2022/07/16 00:26:43;;;;;;;2.50;2.40;;;15.60;98.30;;;;;;6152348;23;20156;-75
2022/07/16 00:29:08;;;;;;;2.63;2.40;;;15.50;98.80;;;;;;6152450;23;20165;-76
2022/07/16 00:31:35;;;;;;;2.70;2.40;;;15.40;99.80;;;;;;6153348;23;20170;-76
2022/07/16 00:34:01;;;;;;;2.88;2.67;;;15.30;99.90;;;;;;6153295;23;20407;-76
2022/07/16 00:36:27;;;;;;;2.50;2.40;;;15.20;99.90;;;;;;6153227;23;20156;-76
2022/07/16 00:38:52;;;;;;;2.78;2.50;;;15.20;99.90;;;;;;6152900;23;20153;-76
2022/07/16 00:41:18;;;;;;;2.80;2.60;;;15.30;99.90;;;;;;6153662;23;20180;-75
2022/07/16 00:43:46;;;;;;;3.40;2.60;;;15.30;99.90;;;;;;6153345;23;20149;-75
2022/07/16 00:46:12;;;;;;;5.43;2.80;;;15.40;99.90;;;;;;6153757;23;20177;-74
2022/07/16 00:48:38;;;;;;;3.78;2.80;;;15.40;99.90;;;;;;6153063;23;20176;-74
2022/07/16 00:51:04;;;;;;;2.90;2.70;;;15.40;99.90;;;;;;6152927;23;20188;-74
2022/07/16 00:53:29;;;;;;;2.80;2.50;;;15.40;99.90;;;;;;6153738;23;20192;-74
2022/07/16 00:55:55;;;;;;;2.63;2.50;;;15.40;99.90;;;;;;6153747;23;20165;-74
2022/07/16 00:58:20;;;;;;;2.67;2.53;;;15.40;99.90;;;;;;6106493;23;1112726;-74
2022/07/16 01:00:46;;;;;;;5.07;2.90;;;15.30;99.90;;;;;;6154766;23;20669;-74
2022/07/16 01:03:12;;;;;;;3.15;2.83;;;15.00;99.90;;;;;;6154769;23;20176;-73
2022/07/16 01:05:38;;;;;;;2.40;2.30;;;15.00;99.90;;;;;;6154834;23;20176;-74
2022/07/16 01:08:04;;;;;;;2.95;2.75;;;14.90;99.90;;;;;;6154753;23;20154;-74
2022/07/16 01:10:30;;;;;;;4.43;2.60;;;14.90;99.90;;;;;;6154623;23;20244;-75
2022/07/16 01:13:00;;;;;;;2.97;2.78;;;14.80;99.90;;;;;;6155114;23;20602;-73
2022/07/16 01:15:26;;;;;;;3.17;2.88;;;14.80;99.90;;;;;;6154812;23;20478;-73
2022/07/16 01:17:53;;;;;;;3.45;3.15;;;14.80;99.90;;;;;;6155515;23;20252;-72
2022/07/16 01:20:19;;;;;;;2.97;2.70;;;14.90;99.90;;;;;;6154679;23;20466;-74
2022/07/16 01:22:46;;;;;;;3.85;2.80;;;14.90;99.90;;;;;;6154970;23;20164;-73
2022/07/16 01:25:12;;;;;;;2.88;2.67;;;14.90;99.90;;;;;;6155152;23;20495;-74
2022/07/16 01:27:38;;;;;;;3.22;2.95;;;14.80;99.90;;;;;;6155380;23;20155;-74
2022/07/16 01:30:08;;;;;;;2.97;2.75;;;14.80;99.90;;;;;;6154666;23;20565;-74
2022/07/16 01:32:35;;;;;;;2.80;2.60;;;14.80;99.90;;;;;;6154958;23;20487;-73
2022/07/16 01:35:02;;;;;;;4.00;2.67;;;14.80;99.90;;;;;;6154695;23;20219;-74
2022/07/16 01:37:28;;;;;;;3.95;3.08;;;14.80;99.90;;;;;;6155709;23;20157;-74
2022/07/16 01:39:53;;;;;;;3.03;2.83;;;14.70;99.90;;;;;;6154579;23;20158;-74
2022/07/16 01:42:19;;;;;;;2.72;2.63;;;14.60;99.90;;;;;;6154455;23;20173;-75
2022/07/16 01:44:45;;;;;;;2.95;2.72;;;14.50;99.90;;;;;;6129099;23;20168;-75
2022/07/16 01:47:10;;;;;;;3.30;3.05;;;14.50;99.90;;;;;;6154660;23;20157;-74
2022/07/16 01:49:38;;;;;;;3.30;2.67;;;14.40;99.90;;;;;;6155006;23;20648;-74
2022/07/16 01:52:06;;;;;;;3.88;2.70;;;14.30;99.90;;;;;;6155159;23;20511;-74
2022/07/16 01:54:31;;;;;;;3.47;2.50;;;14.40;99.90;;;;;;6154675;23;20149;-75
2022/07/16 01:56:57;;;;;;;3.08;2.85;;;14.30;99.90;;;;;;6154686;23;20205;-76
2022/07/16 01:59:23;;;;;;;3.13;2.92;;;14.20;99.90;;;;;;6128621;23;20189;-78
2022/07/16 02:01:48;;;;;;;3.13;2.90;;;14.10;99.90;;;;;;6155544;23;20172;-75
2022/07/16 02:04:14;;;;;;;4.13;3.08;;;14.00;99.90;;;;;;6155564;23;20146;-74
2022/07/16 02:06:40;;;;;;;3.28;2.72;;;14.00;99.90;;;;;;6155067;23;20149;-73
2022/07/16 02:09:05;;;;;;;5.00;3.13;;;14.00;99.90;;;;;;6154834;23;20664;-73
2022/07/16 02:11:31;;;;;;;4.97;3.08;;;14.00;99.90;;;;;;6155038;23;20181;-73
2022/07/16 02:13:57;;;;;;;3.25;2.92;;;13.90;99.90;;;;;;6154811;23;20204;-74
2022/07/16 02:16:22;;;;;;;3.05;2.85;;;13.90;99.90;;;;;;6154632;23;20196;-75
2022/07/16 02:18:48;;;;;;;3.17;2.88;;;13.90;99.90;;;;;;6154684;23;20149;-73
2022/07/16 02:21:13;;;;;;;3.25;3.03;;;13.90;99.90;;;;;;6155098;23;20618;-74
2022/07/16 02:23:39;;;;;;;3.45;2.85;;;13.90;99.90;;;;;;6154670;23;20224;-74
2022/07/16 02:26:05;;;;;;;3.55;3.25;;;13.90;99.90;;;;;;6155037;23;20162;-74
2022/07/16 02:28:30;;;;;;;3.50;3.20;;;13.80;99.90;;;;;;6154357;23;20165;-73
2022/07/16 02:30:56;;;;;;;4.82;3.50;;;13.80;99.90;;;;;;6154284;23;20185;-74
2022/07/16 02:33:22;;;;;;;3.00;2.67;;;13.70;99.90;;;;;;6154690;23;20251;-74
2022/07/16 02:35:48;;;;;;;3.55;2.83;;;13.70;99.90;;;;;;6155448;23;20185;-74
2022/07/16 02:38:14;;;;;;;4.07;3.15;;;13.70;99.90;;;;;;6155167;23;20150;-74
2022/07/16 02:40:41;;;;;;;2.70;2.50;;;13.70;99.90;;;;;;6154137;23;20173;-75
2022/07/16 02:43:08;;;;;;;3.20;3.00;;;13.60;99.90;;;;;;6154361;23;20505;-75
2022/07/16 02:45:35;;;;;;;3.15;2.90;;;13.70;99.90;;;;;;6155142;23;20160;-74
2022/07/16 02:48:01;;;;;;;3.35;3.05;;;13.60;99.90;;;;;;6154883;23;20613;-75
2022/07/16 02:50:28;;;;;;;2.85;2.65;;;13.60;99.90;;;;;;6154038;23;20181;-75
2022/07/16 02:52:54;;;;;;;5.22;3.17;;;13.60;99.90;;;;;;6155154;23;20153;-74
2022/07/16 02:55:20;;;;;;;3.78;3.22;;;13.60;99.90;;;;;;6154767;23;20133;-73
2022/07/16 02:57:45;;;;;;;3.33;3.03;;;13.60;99.90;;;;;;6155233;23;20606;-76
2022/07/16 03:00:13;;;;;;;3.17;2.90;;;13.50;99.90;;;;;;6154713;23;20497;-75
2022/07/16 03:02:40;;;;;;;3.70;3.05;;;13.50;99.90;;;;;;6154689;23;20153;-76
2022/07/16 03:05:07;;;;;;;2.70;2.40;;;13.50;99.90;;;;;;6125769;23;20153;-75
2022/07/16 03:07:33;;;;;;;3.33;3.10;;;13.50;99.90;;;;;;6154419;23;20208;-76
2022/07/16 03:09:58;;;;;;;3.95;2.97;;;13.50;99.90;;;;;;6154712;23;20630;-76
2022/07/16 03:12:24;;;;;;;3.58;2.70;;;13.50;99.90;;;;;;6154685;23;20168;-75
2022/07/16 03:14:50;;;;;;;2.88;2.72;;;13.40;99.90;;;;;;6154535;23;20145;-76
2022/07/16 03:17:16;;;;;;;4.15;3.03;;;13.40;99.90;;;;;;6154773;23;20153;-75
2022/07/16 03:19:42;;;;;;;4.88;3.15;;;13.40;99.90;;;;;;6154976;23;20156;-77
2022/07/16 03:22:08;;;;;;;3.97;2.75;;;13.30;99.90;;;;;;6128517;23;20217;-76
2022/07/16 03:24:34;;;;;;;3.10;2.90;;;13.40;99.90;;;;;;6154755;23;20427;-76
2022/07/16 03:27:00;;;;;;;2.95;2.70;;;13.40;99.90;;;;;;6155134;23;20237;-78
2022/07/16 03:29:25;;;;;;;2.72;2.50;;;13.30;99.90;;;;;;6154399;23;20223;-74
2022/07/16 03:31:51;;;;;;;2.97;2.78;;;13.30;99.90;;;;;;6154762;23;20172;-74
2022/07/16 03:34:17;;;;;;;2.83;2.60;;;13.30;99.90;;;;;;6154873;23;20153;-74
2022/07/16 03:36:42;;;;;;;2.55;2.45;;;13.30;99.90;;;;;;6154910;23;20169;-73
2022/07/16 03:39:08;;;;;;;3.08;2.88;;;13.30;99.90;;;;;;6154310;23;20451;-73
2022/07/16 03:41:35;;;;;;;5.32;3.00;;;13.30;99.90;;;;;;6154311;23;20178;-74
2022/07/16 03:44:02;;;;;;;3.55;2.70;;;13.40;99.90;;;;;;6155437;23;20229;-74
2022/07/16 03:46:29;;;;;;;3.10;2.90;;;13.40;99.90;;;;;;6155499;23;20488;-74
2022/07/16 03:48:55;;;;;;;3.70;2.88;;;13.50;99.90;;;;;;6154141;23;20156;-73
2022/07/16 03:51:21;;;;;;;4.15;2.63;;;13.50;99.90;;;;;;6154132;23;20537;-72
2022/07/16 03:53:47;;;;;;;3.28;2.97;;;13.50;99.90;;;;;;6153164;23;20157;-72
2022/07/16 03:56:13;;;;;;;3.35;2.83;;;13.50;99.90;;;;;;6155878;23;20169;-73
2022/07/16 03:58:38;;;;;;;3.38;2.70;;;13.50;99.90;;;;;;6156083;23;20256;-71
2022/07/16 04:01:04;;;;;;;2.35;2.25;;;13.60;99.90;;;;;;6155879;23;20193;-72
2022/07/16 04:03:30;;;;;;;5.13;2.53;;;13.60;99.90;;;;;;6155425;23;20149;-72
2022/07/16 04:05:55;;;;;;;2.85;2.65;;;13.60;99.90;;;;;;6156418;23;20497;-71
2022/07/16 04:08:21;;;;;;;3.20;2.58;;;13.60;99.90;;;;;;6128876;23;20161;-71
2022/07/16 04:10:47;;;;;;;5.35;2.40;;;13.60;99.90;;;;;;6155782;23;20192;-70
2022/07/16 04:13:12;;;;;;;2.70;2.50;;;13.60;99.90;;;;;;6155680;23;20220;-71
2022/07/16 04:15:38;;;;;;;3.03;2.55;;;13.70;99.90;;;;;;6155803;23;20586;-70
2022/07/16 04:18:04;;;;;;;5.05;2.50;;;13.70;99.90;;;;;;6129915;23;20471;-73
2022/07/16 04:20:30;;;;;;;2.53;2.33;;;13.70;99.90;;;;;;6154398;23;20157;-70
2022/07/16 04:22:55;;;;;;;2.97;2.50;;;13.80;99.90;;;;;;6155204;23;20161;-70
2022/07/16 04:25:21;;;;;;;2.17;2.08;;;13.90;99.90;;;;;;6156037;23;20240;-71
2022/07/16 04:27:47;;;;;;;2.90;2.47;;;13.90;99.90;;;;;;6156370;23;20162;-71
2022/07/16 04:30:14;;;;;;;5.55;2.88;;;14.00;99.90;;;;;;6154527;23;20173;-71
2022/07/16 04:32:40;;;;;;;3.30;2.90;;;13.90;99.90;;;;;;6128554;23;20598;-72
2022/07/16 04:35:08;;;;;;;2.50;2.40;;;14.00;99.90;;;;;;6155062;23;20611;-72
2022/07/16 04:37:34;;;;;;;5.53;2.45;;;14.00;99.90;;;;;;6156302;23;20219;-73
2022/07/16 04:40:02;;;;;;;2.45;2.35;;;14.00;99.90;;;;;;6155483;23;20137;-79
2022/07/16 04:42:27;;;;;;;3.25;2.55;;;14.10;99.90;;;;;;6156181;23;20180;-77
2022/07/16 04:44:53;;;;;;;3.00;2.60;;;14.10;99.90;;;;;;6155413;23;20628;-71
2022/07/16 04:47:19;;;;;;;3.88;2.28;;;14.20;99.90;;;;;;6155531;23;20149;-70
2022/07/16 04:49:44;;;;;;;4.40;2.30;;;14.30;99.90;;;;;;6129245;23;20177;-74
2022/07/16 04:52:10;;;;;;;2.47;2.28;;;14.30;99.90;;;;;;6153722;23;20195;-71
2022/07/16 04:54:35;;;;;;;3.10;2.90;;;14.30;99.90;;;;;;6155453;23;20604;-70
2022/07/16 04:57:01;;;;;;;2.67;2.47;;;14.40;99.90;;;;;;6154710;23;20142;-72
2022/07/16 04:59:27;;;;;;;4.65;2.83;;;14.50;99.90;;;;;;6155372;23;20145;-74
2022/07/16 05:01:52;;;;;;;3.00;2.53;;;14.50;99.90;;;;;;6154603;23;20165;-72
2022/07/16 05:04:18;;;;;;;2.55;2.35;;;14.60;99.90;;;;;;6155298;23;20138;-71
2022/07/16 05:06:44;;;;;;;2.30;2.13;;;14.70;99.90;;;;;;6154558;23;20578;-71
2022/07/16 05:09:10;;;;;;;3.28;2.70;;;14.70;99.90;;;;;;6154575;23;20133;-70
2022/07/16 05:11:36;;;;;;;2.50;2.30;;;14.80;99.90;;;;;;6155331;23;20184;-72
2022/07/16 05:14:01;;;;;;;2.83;2.63;;;14.80;99.90;;;;;;6155591;23;20219;-72
2022/07/16 05:16:27;;;;;;;2.42;2.33;;;14.90;99.90;;;;;;6155339;23;20634;-73
2022/07/16 05:18:52;;;;;;;2.00;1.90;;;14.90;99.90;;;;;;6155236;23;20220;-73
2022/07/16 05:21:18;;;;;;;2.67;2.47;;;14.90;99.90;;;;;;6154890;23;20505;-73
2022/07/16 05:23:44;;;;;;;2.65;2.45;;;15.10;99.90;;;;;;6155166;23;20153;-73
2022/07/16 05:26:10;;;;;;;3.10;2.80;;;15.10;99.90;;;;;;6128724;23;20158;-70
2022/07/16 05:28:36;;;;;;;2.90;2.67;;;15.20;99.90;;;;;;6154861;23;20515;-71
2022/07/16 05:31:02;;;;;;;5.20;2.58;;;15.30;99.90;;;;;;6154627;23;20259;-71
2022/07/16 05:33:27;;;;;;;2.15;2.00;;;15.30;99.90;;;;;;6154931;23;20153;-71
2022/07/16 05:35:53;;;;;;;2.38;2.28;;;15.30;99.90;;;;;;6155148;23;20148;-75
2022/07/16 05:38:19;;;;;;;2.78;2.50;;;15.40;99.90;;;;;;6154133;23;20544;-72
2022/07/16 05:40:44;;;;;;;3.20;2.40;;;15.50;99.90;;;;;;6152789;23;20173;-72
2022/07/16 05:43:10;;;;;;;3.15;2.55;;;15.60;99.90;;;;;;6154716;23;20188;-72
2022/07/16 05:45:36;;;;;;;2.47;2.28;;;15.80;99.90;;;;;;6154896;23;20478;-73
2022/07/16 05:48:02;;;;;;;2.50;2.17;;;15.80;99.90;;;;;;6154920;23;20150;-70
2022/07/16 05:50:28;;;;;;;2.20;2.00;;;15.90;99.90;;;;;;6154312;23;20256;-70
2022/07/16 05:52:53;;;;;;;2.85;2.22;;;16.10;99.90;;;;;;6154073;23;20534;-72
2022/07/16 05:55:19;;;;;;;3.08;2.17;;;16.20;99.90;;;;;;6154298;23;20571;-72
2022/07/16 05:57:44;;;;;;;2.85;2.03;;;16.30;99.90;;;;;;6154188;23;20175;-71
2022/07/16 06:00:11;;;;;;;2.72;2.20;;;16.40;99.90;;;;;;6128618;23;20240;-71
2022/07/16 06:02:38;;;;;;;4.30;2.22;;;16.50;99.90;;;;;;6154697;23;20149;-71
2022/07/16 06:05:04;;;;;;;4.05;2.20;;;16.50;99.90;;;;;;6154824;23;20598;-72
2022/07/16 06:07:30;;;;;;;2.13;2.03;;;16.60;99.90;;;;;;6154900;23;20149;-72
2022/07/16 06:09:55;;;;;;;3.45;2.55;;;16.60;99.90;;;;;;6128052;23;20192;-72
2022/07/16 06:12:21;;;;;;;4.55;2.60;;;16.70;99.90;;;;;;6154800;23;20550;-72
2022/07/16 06:14:47;;;;;;;2.08;1.98;;;16.80;99.90;;;;;;6154567;23;20153;-74
2022/07/16 06:17:13;;;;;;;2.97;2.40;;;17.00;99.90;;;;;;6154581;23;20145;-71
2022/07/16 06:19:43;;;;;;;4.28;2.42;;;17.10;99.90;;;;;;6153910;23;20161;-71
2022/07/16 06:22:10;;;;;;;4.32;2.25;;;17.30;99.90;;;;;;6153360;23;20235;-72
2022/07/16 06:24:36;;;;;;;2.40;2.30;;;17.40;99.90;;;;;;6154328;23;20158;-70
2022/07/16 06:27:02;;;;;;;3.38;2.22;;;17.50;99.90;;;;;;6154331;23;20230;-72
2022/07/16 06:29:29;;;;;;;2.33;1.98;;;17.60;99.90;;;;;;6154478;23;20150;-71
2022/07/16 06:31:54;;;;;;;2.42;2.22;;;17.70;99.60;;;;;;6154601;23;20169;-70
2022/07/16 06:34:20;;;;;;;3.65;2.47;;;17.80;99.20;;;;;;6154560;23;20648;-73
2022/07/16 06:36:46;;;;;;;2.25;2.05;;;17.90;98.90;;;;;;6154544;23;20150;-72
2022/07/16 06:39:12;;;;;;;3.63;2.20;;;18.00;98.30;;;;;;6153943;23;20617;-71
2022/07/16 06:41:38;;;;;;;2.65;2.13;;;18.10;97.80;;;;;;6153658;23;20224;-71
2022/07/16 06:44:05;;;;;;;2.97;2.13;;;18.20;96.40;;;;;;6154944;23;20594;-79
2022/07/16 06:46:30;;;;;;;3.63;2.05;;;18.30;95.50;;;;;;6154023;23;20598;-72
2022/07/16 06:48:56;;;;;;;1.80;1.70;;;18.40;96.20;;;;;;6153186;23;20232;-72
2022/07/16 06:51:22;;;;;;;2.20;2.05;;;18.50;95.80;;;;;;6153305;23;20223;-72
2022/07/16 06:53:48;;;;;;;2.45;1.90;;;18.60;94.60;;;;;;6154170;23;20160;-72
2022/07/16 06:56:13;;;;;;;2.03;1.88;;;18.70;93.50;;;;;;6154499;23;20160;-72
2022/07/16 06:58:39;;;;;;;1.88;1.73;;;18.80;92.10;;;;;;6153324;23;20537;-72
2022/07/16 07:01:05;;;;;;;3.70;1.90;;;19.00;91.40;;;;;;6154129;23;20169;-72
2022/07/16 07:03:30;;;;;;;1.75;1.65;;;19.10;91.10;;;;;;6154557;23;20153;-72
2022/07/16 07:05:57;;;;;;;2.13;1.70;;;19.20;90.20;;;;;;6154317;23;20153;-72
2022/07/16 07:08:22;;;;;;;3.17;2.13;;;19.30;89.30;;;;;;6154091;23;20625;-72
2022/07/16 07:10:48;;;;;;;2.63;1.63;;;19.40;90.70;;;;;;6153581;23;20181;-74
2022/07/16 07:13:14;;;;;;;2.00;1.80;;;19.50;90.40;;;;;;6154116;23;20157;-74
2022/07/16 07:15:41;;;;;;;1.50;1.40;;;19.60;89.80;;;;;;6152113;23;20188;-74
2022/07/16 07:18:07;;;;;;;2.42;1.83;;;19.70;89.60;;;;;;6153851;23;20232;-74
2022/07/16 07:20:32;;;;;;;2.40;1.40;;;19.80;88.40;;;;;;6153391;23;20205;-74
2022/07/16 07:22:58;;;;;;;2.50;1.67;;;19.90;87.70;;;;;;6152516;23;20544;-74
2022/07/16 07:25:24;;;;;;;2.58;1.75;;;20.10;86.10;;;;;;6153720;23;20176;-72
2022/07/16 07:27:49;;;;;;;2.22;1.70;;;20.20;83.70;;;;;;6153695;23;20153;-72
2022/07/16 07:30:15;;;;;;;3.28;1.80;;;20.40;83.10;;;;;;6154542;23;20177;-76
2022/07/16 07:32:41;;;;;;;2.22;1.60;;;20.50;82.50;;;;;;6155025;23;20159;-75
2022/07/16 07:35:07;;;;;;;2.65;1.83;;;20.60;82.20;;;;;;6155569;23;20150;-73
2022/07/16 07:37:33;;;;;;;1.90;1.80;;;20.70;80.60;;;;;;6155817;23;20241;-73
2022/07/16 07:39:58;;;;;;;1.80;1.60;;;20.80;82.70;;;;;;6155789;23;20513;-73
2022/07/16 07:42:24;;;;;;;2.55;1.73;;;21.00;80.60;;;;;;6155357;23;20177;-73
2022/07/16 07:44:50;;;;;;;3.03;2.15;;;21.00;78.20;;;;;;6155603;23;20176;-72
2022/07/16 07:47:15;;;;;;;3.97;1.67;;;21.10;76.90;;;;;;6155359;23;20149;-74
2022/07/16 07:49:41;;;;;;;1.27;1.20;;;21.10;75.30;;;;;;6154632;23;20188;-74
2022/07/16 07:52:08;;;;;;;1.85;1.70;;;21.20;71.70;;;;;;6155299;23;20199;-76
2022/07/16 07:54:34;;;;;;;1.67;1.42;;;21.20;71.00;;;;;;6155570;23;20157;-77
2022/07/16 07:57:00;;;;;;;1.27;1.15;;;21.30;74.10;;;;;;6129255;23;20188;-75
2022/07/16 07:59:25;;;;;;;1.50;1.40;;;21.30;73.90;;;;;;6154777;23;20146;-76
2022/07/16 08:01:51;;;;;;;2.75;1.60;;;21.50;71.50;;;;;;6155337;23;20674;-74
2022/07/16 08:04:17;;;;;;;1.98;1.40;;;21.60;70.30;;;;;;6155546;23;20158;-75
2022/07/16 08:06:42;;;;;;;2.17;1.45;;;21.60;70.90;;;;;;6155424;23;20149;-76
2022/07/16 08:09:08;;;;;;;2.25;1.50;;;21.70;70.00;;;;;;6154074;23;20145;-76
2022/07/16 08:11:34;;;;;;;2.55;1.50;;;21.80;69.60;;;;;;6155277;23;20181;-75
2022/07/16 08:13:59;;;;;;;1.95;1.40;;;21.90;70.10;;;;;;6155546;23;20224;-74
2022/07/16 08:16:25;;;;;;;2.13;1.58;;;21.90;69.20;;;;;;6155353;23;20178;-74
2022/07/16 08:18:51;;;;;;;3.03;1.67;;;22.00;68.50;;;;;;6153571;23;20157;-74
2022/07/16 08:21:17;;;;;;;2.25;1.23;;;22.10;69.10;;;;;;6154690;23;20184;-74
2022/07/16 08:26:26;;;;;;;7.63;1.88;;;22.20;68.60;;;;;;6155555;23;20144;-72
2022/07/16 08:28:53;;;;;;;1.60;1.50;;;22.20;68.20;;;;;;6154037;23;20154;-72
2022/07/16 08:31:18;;;;;;;2.40;1.50;;;22.20;66.10;;;;;;6155002;23;20185;-72
2022/07/16 08:33:44;;;;;;;2.25;1.52;;;22.30;69.40;;;;;;6155306;23;20152;-72
2022/07/16 08:36:10;;;;;;;1.45;1.35;;;22.40;66.30;;;;;;6154784;23;20153;-74
2022/07/16 08:38:35;;;;;;;2.60;1.67;;;22.50;65.00;;;;;;6154609;23;20224;-74
2022/07/16 08:41:02;;;;;;;4.13;1.25;;;22.60;64.20;;;;;;6154791;23;20372;-75
2022/07/16 08:43:30;;;;;;;2.83;1.42;;;22.60;60.60;;;;;;6155265;23;20228;-71
2022/07/16 08:45:56;;;;;;;1.70;1.30;;;22.50;61.60;;;;;;6130253;23;20248;-79
2022/07/16 08:48:24;;;;;;;1.00;1.00;;;22.50;60.90;;;;;;6130166;23;20204;-77
2022/07/16 08:50:52;;;;;;;1.67;1.35;;;22.50;62.10;;;;;;6154284;23;20181;-77
2022/07/16 08:53:22;;;;;;;1.88;1.30;;;22.60;64.40;;;;;;6156012;23;20611;-77
2022/07/16 08:55:51;;;;;;;3.30;1.77;;;22.80;62.80;;;;;;6156157;23;20173;-77
2022/07/16 08:58:17;;;;;;;2.08;1.40;;;22.90;61.90;;;;;;6154489;23;20244;-76
2022/07/16 09:00:42;;;;;;;1.42;1.30;;;23.00;59.10;;;;;;6154086;23;20197;-75
2022/07/16 09:03:14;;;;;;;2.05;1.25;;;23.00;59.50;;;;;;6153461;23;20149;-76
2022/07/16 09:05:41;;;;;;;2.38;1.50;;;23.00;58.60;;;;;;6154276;23;20602;-75
2022/07/16 09:08:07;;;;;;;1.15;1.15;;;22.90;60.50;;;;;;6153005;23;20146;-76
2022/07/16 09:10:38;;;;;;;1.27;1.15;;;22.90;61.00;;;;;;6153795;23;20211;-75
2022/07/16 09:13:05;;;;;;;1.50;1.30;;;22.90;60.40;;;;;;6154538;23;20145;-74
2022/07/16 09:15:36;;;;;;;1.48;1.38;;;23.00;59.10;;;;;;6128435;23;20150;-75
2022/07/16 09:18:18;;;;;;;2.67;1.38;;;23.20;60.00;;;;;;6153261;23;20625;-75
2022/07/16 09:20:57;;;;;;;2.83;1.55;;;23.40;58.30;;;;;;6153789;23;20223;-76
2022/07/16 09:23:31;;;;;;;2.70;1.50;;;23.60;58.00;;;;;;6155492;23;20145;-77
2022/07/16 09:25:59;;;;;;;5.13;1.40;;;23.80;57.80;;;;;;6154964;23;20138;-79
2022/07/16 09:28:36;;;;;;;1.90;1.25;;;24.00;56.30;;;;;;6154747;23;20145;-77
2022/07/16 09:31:02;;;;;;;1.23;1.10;;;24.00;55.70;;;;;;6154231;23;20646;-75
2022/07/16 09:33:28;;;;;;;3.67;1.55;;;24.00;55.90;;;;;;6154612;23;20146;-74
2022/07/16 09:36:08;;;;;;;2.65;1.40;;;24.10;55.50;;;;;;6152287;23;20188;-77
2022/07/16 09:38:51;;;;;;;1.52;1.42;;;24.40;56.60;;;;;;6155365;23;20133;-78
2022/07/16 09:41:18;;;;;;;1.98;1.30;;;25.80;54.20;;;;;;6153249;23;20422;-77
2022/07/16 09:43:45;;;;;;;1.77;1.23;;;28.10;51.40;;;;;;6153934;23;20154;-76
2022/07/16 09:46:22;;;;;;;2.85;1.30;;;30.70;45.40;;;;;;6152240;23;20160;-75
2022/07/16 09:48:49;;;;;;;2.13;1.27;;;32.80;43.30;;;;;;6127818;23;20263;-75
2022/07/16 09:51:25;;;;;;;1.67;1.30;;;33.70;40.40;;;;;;6154288;23;20259;-74
2022/07/16 09:53:52;;;;;;;2.05;1.35;;;34.50;37.40;;;;;;6152745;23;20579;-74
2022/07/16 09:56:24;;;;;;;1.00;1.00;;;35.10;37.80;;;;;;6152762;23;20164;-76
2022/07/16 09:58:55;;;;;;;1.65;1.20;;;35.60;36.10;;;;;;6127779;23;20172;-75
2022/07/16 10:01:21;;;;;;;2.20;1.05;;;35.90;35.00;;;;;;6153245;23;20636;-73
2022/07/16 10:03:48;;;;;;;1.83;1.20;;;36.00;35.00;;;;;;6154170;23;20153;-73
2022/07/16 10:06:14;;;;;;;1.20;1.10;;;36.10;34.30;;;;;;6153871;23;20153;-72
2022/07/16 10:08:41;;;;;;;2.63;1.15;;;36.40;34.70;;;;;;6152939;23;20609;-73
2022/07/16 10:11:07;;;;;;;1.70;1.45;;;36.90;34.30;;;;;;6153043;23;20211;-73
2022/07/16 10:13:34;;;;;;;1.23;1.15;;;37.20;33.10;;;;;;6153979;23;20200;-71
2022/07/16 10:16:01;;;;;;;1.77;1.33;;;37.50;33.30;;;;;;6152995;23;20180;-70
2022/07/16 10:18:42;;;;;;;1.30;1.20;;;37.90;32.50;;;;;;6154135;23;20153;-70
2022/07/16 10:21:10;;;;;;;1.40;1.30;;;38.70;32.00;;;;;;6153674;23;20204;-68
2022/07/16 10:23:37;;;;;;;2.42;1.30;;;39.40;31.50;;;;;;6154123;23;20153;-68
2022/07/16 10:26:14;;;;;;;1.25;1.15;;;39.30;31.60;;;;;;6154226;23;20550;-67
2022/07/16 10:28:44;;;;;;;1.20;1.00;;;39.50;30.70;;;;;;6153869;23;20212;-69
2022/07/16 10:31:31;;;;;;;3.38;1.50;;;39.90;30.40;;;;;;6152913;23;20189;-70
2022/07/16 10:34:15;;;;;;;1.23;1.10;;;39.20;31.00;;;;;;6153115;23;20156;-72
2022/07/16 10:36:52;;;;;;;1.02;1.02;;;39.20;32.10;;;;;;6153046;23;20144;-68
2022/07/16 10:39:19;;;;;;;2.38;1.40;;;38.80;32.30;;;;;;6152939;23;20153;-69
2022/07/16 10:41:48;;;;;;;1.38;1.30;;;39.40;32.10;;;;;;6152581;23;20172;-70
2022/07/16 10:44:14;;;;;;;2.22;1.20;;;39.20;31.50;;;;;;6153583;23;20152;-67
2022/07/16 10:46:53;;;;;;;1.95;1.45;;;39.30;32.20;;;;;;6153156;23;20231;-67
2022/07/16 10:49:20;;;;;;;0.90;0.90;;;39.30;31.60;;;;;;6153466;23;20149;-66
2022/07/16 10:52:01;;;;;;;2.13;1.10;;;39.50;30.80;;;;;;6153238;23;20189;-69
2022/07/16 10:54:30;;;;;;;2.13;1.35;;;39.60;31.40;;;;;;6153215;23;20542;-67
2022/07/16 10:56:58;;;;;;;3.95;1.30;;;40.10;30.60;;;;;;6153192;23;20153;-67
2022/07/16 10:59:29;;;;;;;2.67;1.52;;;40.30;31.60;;;;;;6153353;23;20152;-68
2022/07/16 11:01:58;;;;;;;2.30;1.10;;;39.80;31.10;;;;;;6153167;23;20614;-68
2022/07/16 11:04:29;;;;;;;1.58;1.48;;;40.40;30.40;;;;;;6153490;23;20145;-67
2022/07/16 11:06:55;;;;;;;1.30;1.13;;;40.80;29.50;;;;;;6155673;23;20129;-70
2022/07/16 11:09:33;;;;;;;2.78;1.13;;;40.70;29.90;;;;;;6155187;23;20149;-68
2022/07/16 11:12:21;;;;;;;1.48;1.33;;;41.50;29.40;;;;;;6155094;23;20183;-67
2022/07/16 11:14:51;;;;;;;2.22;1.50;;;41.80;29.60;;;;;;6155306;23;20179;-66
2022/07/16 11:17:18;;;;;;;1.05;1.05;;;41.30;29.90;;;;;;6155655;23;20153;-68
2022/07/16 11:19:48;;;;;;;1.45;1.30;;;41.00;29.50;;;;;;6150676;23;20619;-65
2022/07/16 11:22:17;;;;;;;1.45;1.33;;;41.60;29.00;;;;;;6153804;23;20169;-68
2022/07/16 11:24:49;;;;;;;1.95;1.27;;;41.50;29.20;;;;;;6154829;23;20129;-67
2022/07/16 11:27:16;;;;;;;1.20;1.10;;;40.90;29.60;;;;;;6155059;23;20168;-67
2022/07/16 11:29:42;;;;;;;2.50;1.10;;;40.10;29.60;;;;;;6154886;23;20151;-67
2022/07/16 11:32:12;;;;;;;1.52;1.40;;;39.70;30.80;;;;;;6154806;23;20172;-66
2022/07/16 11:34:38;;;;;;;1.45;1.10;;;39.80;30.10;;;;;;6155314;23;20137;-67
2022/07/16 11:37:04;;;;;;;0.80;0.80;;;39.50;30.10;;;;;;6154986;23;20145;-67
2022/07/16 11:39:29;;;;;;;2.00;1.13;;;39.30;31.10;;;;;;6154485;23;20153;-66
2022/07/16 11:41:58;;;;;;;2.65;1.30;;;39.30;30.50;;;;;;6154633;23;20180;-66
2022/07/16 11:44:32;;;;;;;1.35;1.25;;;39.20;30.80;;;;;;6155158;23;20141;-66
2022/07/16 11:47:03;;;;;;;1.40;1.13;;;39.20;30.30;;;;;;6152466;23;20141;-66
2022/07/16 11:49:36;;;;;;;1.90;1.30;;;39.00;30.80;;;;;;6154636;23;20415;-67
2022/07/16 11:52:09;;;;;;;1.20;1.08;;;38.50;31.20;;;;;;6151256;23;20180;-67
2022/07/16 11:54:39;;;;;;;0.90;0.90;;;38.40;30.90;;;;;;6155004;23;20574;-66
2022/07/16 11:57:10;;;;;;;1.13;1.02;;;38.60;31.80;;;;;;6155262;23;20230;-66
2022/07/16 11:59:42;;;;;;;1.10;1.10;;;38.20;31.40;;;;;;6154977;23;20259;-66
2022/07/16 12:02:13;;;;;;;2.67;1.20;;;37.50;32.30;;;;;;6152754;23;20187;-67
2022/07/16 12:04:40;;;;;;;2.80;1.00;;;37.80;32.40;;;;;;6154793;23;20140;-67
2022/07/16 12:07:11;;;;;;;1.23;0.90;;;38.00;31.70;;;;;;6154304;23;20203;-67
2022/07/16 12:09:39;;;;;;;2.50;1.10;;;38.20;32.20;;;;;;6154711;23;20448;-66
2022/07/16 12:12:08;;;;;;;1.85;1.30;;;38.70;31.00;;;;;;6153909;23;20204;-67
2022/07/16 12:14:49;;;;;;;1.35;1.20;;;38.60;31.00;;;;;;6154674;23;20489;-66
2022/07/16 12:17:21;;;;;;;3.03;1.30;;;38.90;30.90;;;;;;6155355;23;20157;-65
2022/07/16 12:20:21;;;;;;;1.00;1.00;;;38.90;31.00;;;;;;6153488;23;20149;-64
2022/07/16 12:23:00;;;;;;;0.80;0.80;;;38.20;31.70;;;;;;6154972;23;20453;-64
2022/07/16 12:25:29;;;;;;;1.20;1.13;;;38.50;30.90;;;;;;6154808;23;20533;-67
2022/07/16 12:28:00;;;;;;;2.17;1.05;;;38.00;31.80;;;;;;6155440;23;20173;-66
2022/07/16 12:30:51;;;;;;;1.20;1.02;;;37.00;32.70;;;;;;6153967;23;20175;-66
2022/07/16 12:33:22;;;;;;;2.78;1.02;;;36.10;33.20;;;;;;6155333;23;20137;-65
2022/07/16 12:36:04;;;;;;;1.00;1.00;;;35.10;34.20;;;;;;6154375;23;20152;-66
2022/07/16 12:38:46;;;;;;;1.05;1.00;;;35.20;33.90;;;;;;6154377;23;20195;-69
2022/07/16 12:41:41;;;;;;;1.25;1.25;;;34.50;34.80;;;;;;6154038;23;20176;-65
2022/07/16 12:44:10;;;;;;;1.30;0.90;;;35.60;34.50;;;;;;6147345;23;20161;-67
2022/07/16 12:46:46;;;;;;;1.38;0.77;;;37.30;32.00;;;;;;6154648;23;20160;-65
2022/07/16 12:49:17;;;;;;;0.70;0.70;;;38.00;31.80;;;;;;6154484;23;20133;-66
2022/07/16 12:51:59;;;;;;;1.13;1.00;;;38.80;30.90;;;;;;6155409;23;20719;-66
2022/07/16 12:54:25;;;;;;;1.10;1.00;;;38.10;31.20;;;;;;6154642;23;20133;-66